Time;durP1;ratioP1;P1;durP2;ratioP2;P2;SDS_P1;SDS_P2;PMS_P1;PMS_P2;Temp;Humidity;BMP_temperature;BMP_pressure;BME280_temperature;BME280_humidity;BME280_pressure;Samples;Min_cycle;Max_cycle;Signal;HPM_P1;HPM_P2
2023/07/26 00:00:32;;;;;;;1.63;0.88;;;;;;;;;;513481;28;1595;-72
2023/07/26 00:00:55;;;;;;;2.43;0.87;;;;;;;;;;512663;28;1529;-73
2023/07/26 00:01:16;;;;;;;2.63;0.80;;;;;;;;;;511091;28;1544;-72
2023/07/26 00:01:41;;;;;;;1.50;0.77;;;;;;;;;;510007;28;1398;-73
2023/07/26 00:02:00;;;;;;;1.15;0.73;;;;;;;;;;509333;28;1394;-73
2023/07/26 00:02:24;;;;;;;1.35;0.80;;;;;;;;;;509672;28;1463;-75
2023/07/26 00:03:37;;;;;;;2.30;0.82;;;;;;;;;;506205;28;1253;-74
2023/07/26 00:03:59;;;;;;;1.38;0.80;;;;;;;;;;507290;28;1479;-76
2023/07/26 00:04:15;;;;;;;1.90;0.88;;;;;;;;;;509153;28;1565;-75
2023/07/26 00:04:34;;;;;;;2.58;0.90;;;;;;;;;;512789;28;1289;-76
2023/07/26 00:05:06;;;;;;;2.20;0.80;;;;;;;;;;510928;28;1445;-74
2023/07/26 00:05:25;;;;;;;2.30;0.80;;;;;;;;;;508664;28;1154;-75
2023/07/26 00:05:44;;;;;;;1.75;0.80;;;;;;;;;;507355;28;1403;-75
2023/07/26 00:06:13;;;;;;;1.75;0.82;;;;;;;;;;507658;28;1550;-75
2023/07/26 00:06:32;;;;;;;0.95;0.70;;;;;;;;;;508494;28;978;-75
2023/07/26 00:06:56;;;;;;;2.25;0.88;;;;;;;;;;507859;28;1618;-75
2023/07/26 00:08:17;;;;;;;1.60;0.77;;;;;;;;;;504523;28;1280;-73
2023/07/26 00:08:36;;;;;;;2.30;0.90;;;;;;;;;;504684;28;1186;-73
2023/07/26 00:08:58;;;;;;;1.90;0.80;;;;;;;;;;505032;28;1264;-73
2023/07/26 00:09:24;;;;;;;;;;;;;;;;;;;;;
2023/07/26 00:09:40;;;;;;;2.05;0.70;;;;;;;;;;515485;28;863;-73
2023/07/26 00:10:09;;;;;;;2.35;0.77;;;;;;;;;;513099;28;1223;-73
2023/07/26 00:10:37;;;;;;;2.42;0.80;;;;;;;;;;510637;28;1165;-75
2023/07/26 00:11:01;;;;;;;1.90;0.70;;;;;;;;;;514167;28;1445;-74
2023/07/26 00:11:18;;;;;;;1.73;0.70;;;;;;;;;;513235;28;1036;-75
2023/07/26 00:11:43;;;;;;;1.63;0.80;;;;;;;;;;513306;28;1419;-75
2023/07/26 00:12:05;;;;;;;1.80;0.90;;;;;;;;;;515881;28;1328;-75
2023/07/26 00:12:39;;;;;;;1.27;0.70;;;;;;;;;;515394;28;1326;-72
2023/07/26 00:13:01;;;;;;;2.00;0.77;;;;;;;;;;512651;28;1377;-74
2023/07/26 00:13:38;;;;;;;1.15;0.70;;;;;;;;;;513332;28;1469;-75
2023/07/26 00:13:56;;;;;;;2.05;0.80;;;;;;;;;;512683;28;1283;-74
2023/07/26 00:14:36;;;;;;;1.70;0.80;;;;;;;;;;511053;28;1372;-75
2023/07/26 00:14:54;;;;;;;1.50;0.70;;;;;;;;;;511987;28;1123;-74
2023/07/26 00:15:10;;;;;;;0.90;0.60;;;;;;;;;;511716;28;1341;-73
2023/07/26 00:15:58;;;;;;;0.85;0.50;;;;;;;;;;511438;28;1468;-74
2023/07/26 00:16:25;;;;;;;1.45;0.73;;;;;;;;;;514394;28;1475;-73
2023/07/26 00:16:44;;;;;;;1.27;0.70;;;;;;;;;;511922;28;1373;-73
2023/07/26 00:17:03;;;;;;;1.50;0.85;;;;;;;;;;511039;28;1447;-72
2023/07/26 00:17:26;;;;;;;1.73;0.73;;;;;;;;;;511604;28;1536;-69
2023/07/26 00:17:44;;;;;;;1.35;0.70;;;;;;;;;;510712;28;1461;-73
2023/07/26 00:18:04;;;;;;;1.63;0.70;;;;;;;;;;511156;28;1271;-74
2023/07/26 00:18:25;;;;;;;1.98;0.80;;;;;;;;;;511200;28;1275;-74
2023/07/26 00:19:01;;;;;;;1.80;0.60;;;;;;;;;;511619;28;1208;-75
2023/07/26 00:19:20;;;;;;;2.33;0.70;;;;;;;;;;513702;28;1630;-73
2023/07/26 00:19:42;;;;;;;2.25;0.65;;;;;;;;;;511612;28;1164;-72
2023/07/26 00:20:26;;;;;;;2.72;0.88;;;;;;;;;;515776;28;1273;-72
2023/07/26 00:21:03;;;;;;;2.00;0.80;;;;;;;;;;516217;28;1353;-73
2023/07/26 00:22:01;;;;;;;2.78;0.70;;;;;;;;;;507909;28;907;-73
2023/07/26 00:22:04;;;;;;;1.98;0.80;;;;;;;;;;512645;28;1465;-73
2023/07/26 00:22:43;;;;;;;2.25;0.73;;;;;;;;;;510694;28;1305;-71
2023/07/26 00:23:45;;;;;;;1.80;0.68;;;;;;;;;;513165;28;1356;-73
2023/07/26 00:25:26;;;;;;;0.85;0.60;;;;;;;;;;508747;28;1831;-73
2023/07/26 00:26:04;;;;;;;2.10;0.80;;;;;;;;;;508464;28;1421;-73
2023/07/26 00:26:20;;;;;;;1.90;0.70;;;;;;;;;;516232;28;1440;-73
2023/07/26 00:26:44;;;;;;;1.88;0.75;;;;;;;;;;516149;28;1472;-73
2023/07/26 00:27:14;;;;;;;2.25;0.90;;;;;;;;;;513404;28;1492;-73
2023/07/26 00:27:39;;;;;;;1.45;0.80;;;;;;;;;;510718;28;1465;-74
2023/07/26 00:28:20;;;;;;;2.03;0.70;;;;;;;;;;512038;28;1360;-73
2023/07/26 00:29:21;;;;;;;2.00;0.85;;;;;;;;;;508559;28;938;-73
2023/07/26 00:29:21;;;;;;;2.10;0.85;;;;;;;;;;515371;28;1558;-73
2023/07/26 00:29:40;;;;;;;2.33;0.90;;;;;;;;;;515597;28;1384;-73
2023/07/26 00:30:14;;;;;;;1.98;0.80;;;;;;;;;;514847;28;1349;-73
2023/07/26 00:30:56;;;;;;;1.40;0.80;;;;;;;;;;512376;28;1402;-73
2023/07/26 00:31:12;;;;;;;2.20;0.80;;;;;;;;;;506562;28;1150;-73
2023/07/26 00:31:48;;;;;;;1.88;0.90;;;;;;;;;;506591;28;1323;-73
2023/07/26 00:32:15;;;;;;;1.50;0.90;;;;;;;;;;506155;28;1371;-73
2023/07/26 00:32:34;;;;;;;1.90;0.85;;;;;;;;;;508300;28;1367;-72
2023/07/26 00:33:08;;;;;;;2.03;0.70;;;;;;;;;;505437;28;1611;-74
2023/07/26 00:33:50;;;;;;;1.95;0.93;;;;;;;;;;509880;28;1339;-73
2023/07/26 00:34:09;;;;;;;1.90;0.95;;;;;;;;;;508391;28;1489;-71
2023/07/26 00:34:31;;;;;;;1.63;0.90;;;;;;;;;;509916;28;1318;-73
2023/07/26 00:35:42;;;;;;;1.85;0.70;;;;;;;;;;506994;28;960;-74
2023/07/26 00:36:01;;;;;;;2.30;0.90;;;;;;;;;;504517;28;1332;-74
2023/07/26 00:36:20;;;;;;;1.73;0.90;;;;;;;;;;503517;28;1344;-73
2023/07/26 00:36:49;;;;;;;2.10;0.90;;;;;;;;;;506812;28;1435;-74
2023/07/26 00:37:11;;;;;;;2.47;1.00;;;;;;;;;;505518;28;1461;-73
2023/07/26 00:37:47;;;;;;;2.35;0.90;;;;;;;;;;503233;28;1247;-73
2023/07/26 00:38:55;;;;;;;1.70;0.80;;;;;;;;;;506575;28;1228;-73
2023/07/26 00:39:45;;;;;;;2.13;0.93;;;;;;;;;;506529;28;1374;-74
2023/07/26 00:40:14;;;;;;;2.30;0.90;;;;;;;;;;505572;28;1578;-74
2023/07/26 00:40:48;;;;;;;;;;;;;;;;;;;;;
2023/07/26 00:41:07;;;;;;;1.92;1.00;;;;;;;;;;508340;28;1195;-72
2023/07/26 00:41:35;;;;;;;1.63;1.00;;;;;;;;;;509140;28;1417;-73
2023/07/26 00:41:53;;;;;;;1.60;0.80;;;;;;;;;;507257;28;1343;-74
2023/07/26 00:42:49;;;;;;;2.00;1.00;;;;;;;;;;500646;29;1156;-74
2023/07/26 00:43:27;;;;;;;2.28;1.00;;;;;;;;;;500813;29;1353;-73
2023/07/26 00:43:46;;;;;;;1.90;1.00;;;;;;;;;;496706;29;1408;-73
2023/07/26 00:44:17;;;;;;;2.22;1.00;;;;;;;;;;498557;29;1371;-73
2023/07/26 00:45:13;;;;;;;2.35;0.80;;;;;;;;;;499204;29;1405;-73
2023/07/26 00:46:11;;;;;;;2.17;0.80;;;;;;;;;;501102;29;1372;-74
2023/07/26 00:46:45;;;;;;;1.40;0.80;;;;;;;;;;497023;29;1184;-74
2023/07/26 00:47:22;;;;;;;2.38;1.00;;;;;;;;;;495316;29;1037;-73
2023/07/26 00:47:48;;;;;;;1.42;0.90;;;;;;;;;;496428;29;1890;-73
2023/07/26 00:48:07;;;;;;;2.15;0.82;;;;;;;;;;496454;29;1456;-73
2023/07/26 00:49:09;;;;;;;1.95;1.00;;;;;;;;;;496073;29;1432;-74
2023/07/26 00:49:57;;;;;;;3.58;0.80;;;;;;;;;;500405;29;1531;-73
2023/07/26 00:50:13;;;;;;;1.63;0.73;;;;;;;;;;498891;28;1633;-75
2023/07/26 00:50:32;;;;;;;1.50;0.80;;;;;;;;;;502344;28;1341;-74
2023/07/26 00:52:25;;;;;;;1.77;0.80;;;;;;;;;;494692;29;1284;-74
2023/07/26 00:52:46;;;;;;;2.78;0.95;;;;;;;;;;501366;28;1340;-73
2023/07/26 00:53:06;;;;;;;2.17;1.10;;;;;;;;;;502138;28;1359;-73
2023/07/26 00:53:26;;;;;;;2.05;0.90;;;;;;;;;;502436;28;1103;-73
2023/07/26 00:54:01;;;;;;;2.00;0.80;;;;;;;;;;502140;29;1372;-76
2023/07/26 00:54:23;;;;;;;2.20;0.80;;;;;;;;;;501176;29;1277;-73
2023/07/26 00:54:52;;;;;;;1.40;0.77;;;;;;;;;;500440;29;1292;-73
2023/07/26 00:55:12;;;;;;;1.40;0.90;;;;;;;;;;498107;29;1295;-73
2023/07/26 00:55:54;;;;;;;1.52;0.90;;;;;;;;;;499343;29;1600;-73
2023/07/26 00:56:12;;;;;;;2.53;0.90;;;;;;;;;;497998;29;1352;-73
2023/07/26 00:56:34;;;;;;;2.00;0.80;;;;;;;;;;497091;29;1330;-73
2023/07/26 00:56:50;;;;;;;2.10;1.10;;;;;;;;;;498016;29;1337;-73
2023/07/26 00:57:25;;;;;;;2.33;1.00;;;;;;;;;;498982;29;1309;-74
2023/07/26 00:58:20;;;;;;;2.80;1.00;;;;;;;;;;501831;29;1320;-74
2023/07/26 00:58:50;;;;;;;2.22;1.00;;;;;;;;;;497387;29;1478;-73
2023/07/26 00:59:38;;;;;;;1.42;0.88;;;;;;;;;;501291;28;970;-74
2023/07/26 00:59:55;;;;;;;2.05;1.00;;;;;;;;;;498871;28;1368;-74
2023/07/26 01:00:18;;;;;;;1.88;0.98;;;;;;;;;;501030;29;968;-73
2023/07/26 01:00:40;;;;;;;1.63;0.90;;;;;;;;;;500466;29;1341;-73
2023/07/26 01:01:08;;;;;;;2.03;0.90;;;;;;;;;;500686;29;1484;-73
2023/07/26 01:02:25;;;;;;;2.63;1.00;;;;;;;;;;498516;29;1253;-73
2023/07/26 01:02:29;;;;;;;2.78;1.00;;;;;;;;;;496798;28;1329;-73
2023/07/26 01:02:56;;;;;;;2.95;1.10;;;;;;;;;;503439;28;1373;-74
2023/07/26 01:03:13;;;;;;;1.75;1.00;;;;;;;;;;503754;28;1340;-73
2023/07/26 01:03:32;;;;;;;1.60;1.00;;;;;;;;;;505049;28;1443;-73
2023/07/26 01:04:30;;;;;;;1.65;0.90;;;;;;;;;;503549;28;1423;-74
2023/07/26 01:05:09;;;;;;;2.70;1.15;;;;;;;;;;498305;29;975;-73
2023/07/26 01:05:12;;;;;;;1.67;0.88;;;;;;;;;;502507;29;946;-73
2023/07/26 01:06:31;;;;;;;2.38;1.10;;;;;;;;;;501032;28;1142;-73
2023/07/26 01:07:07;;;;;;;1.70;0.93;;;;;;;;;;492400;29;1418;-74
2023/07/26 01:08:54;;;;;;;2.83;1.00;;;;;;;;;;496036;29;1144;-73
2023/07/26 01:10:02;;;;;;;3.05;1.00;;;;;;;;;;494596;29;1388;-76
2023/07/26 01:10:29;;;;;;;3.05;1.20;;;;;;;;;;492062;29;1402;-74
2023/07/26 01:11:06;;;;;;;1.92;0.90;;;;;;;;;;491515;29;1309;-74
2023/07/26 01:11:34;;;;;;;2.00;1.10;;;;;;;;;;493135;29;1305;-73
2023/07/26 01:12:22;;;;;;;2.40;1.50;;;;;;;;;;494525;29;1327;-74
2023/07/26 01:12:59;;;;;;;2.10;1.02;;;;;;;;;;490300;29;1419;-74
2023/07/26 01:13:54;;;;;;;3.47;1.60;;;;;;;;;;490046;29;1343;-73
2023/07/26 01:15:22;;;;;;;3.55;1.10;;;;;;;;;;486671;29;1550;-74
2023/07/26 01:15:41;;;;;;;2.00;1.00;;;;;;;;;;487923;29;1201;-74
2023/07/26 01:16:09;;;;;;;2.28;1.00;;;;;;;;;;489808;29;1529;-74
2023/07/26 01:16:25;;;;;;;1.00;0.90;;;;;;;;;;488579;29;1293;-74
2023/07/26 01:16:42;;;;;;;2.03;1.08;;;;;;;;;;489377;29;1525;-74
2023/07/26 01:17:01;;;;;;;2.58;1.00;;;;;;;;;;489999;29;1895;-73
2023/07/26 01:17:23;;;;;;;1.60;0.80;;;;;;;;;;489640;29;1248;-73
2023/07/26 01:18:10;;;;;;;1.58;0.90;;;;;;;;;;490036;29;1473;-73
2023/07/26 01:18:25;;;;;;;1.65;0.80;;;;;;;;;;487885;29;1290;-74
2023/07/26 01:19:43;;;;;;;1.15;0.90;;;;;;;;;;492099;29;1405;-74
2023/07/26 01:20:12;;;;;;;1.55;0.80;;;;;;;;;;498974;29;1064;-74
2023/07/26 01:20:33;;;;;;;2.47;1.00;;;;;;;;;;496891;29;1548;-73
2023/07/26 01:20:52;;;;;;;2.55;1.00;;;;;;;;;;498085;29;1098;-74
2023/07/26 01:21:37;;;;;;;1.75;0.82;;;;;;;;;;498983;29;1396;-73
2023/07/26 01:22:00;;;;;;;1.95;0.80;;;;;;;;;;499682;29;1029;-73
2023/07/26 01:22:21;;;;;;;2.35;0.90;;;;;;;;;;499477;29;1419;-73
2023/07/26 01:22:45;;;;;;;2.05;0.90;;;;;;;;;;500672;29;1189;-74
2023/07/26 01:23:08;;;;;;;2.03;0.90;;;;;;;;;;501220;29;1146;-74
2023/07/26 01:23:45;;;;;;;2.28;0.88;;;;;;;;;;499686;29;1984;-73
2023/07/26 01:24:06;;;;;;;2.30;1.00;;;;;;;;;;503206;28;1543;-76
2023/07/26 01:24:25;;;;;;;2.10;1.00;;;;;;;;;;501780;28;1366;-75
2023/07/26 01:24:44;;;;;;;1.33;0.80;;;;;;;;;;501556;28;1096;-76
2023/07/26 01:25:45;;;;;;;1.05;0.70;;;;;;;;;;495308;29;1315;-74
2023/07/26 01:26:07;;;;;;;1.67;0.80;;;;;;;;;;499329;29;1368;-73
2023/07/26 01:26:28;;;;;;;2.85;0.98;;;;;;;;;;502755;28;987;-73
2023/07/26 01:26:46;;;;;;;2.22;0.88;;;;;;;;;;503479;28;1225;-74
2023/07/26 01:27:16;;;;;;;1.90;0.80;;;;;;;;;;502368;28;1444;-74
2023/07/26 01:28:12;;;;;;;;;;;;;;;;;;;;;
2023/07/26 01:28:28;;;;;;;1.73;0.88;;;;;;;;;;499883;29;1037;-74
2023/07/26 01:28:50;;;;;;;1.67;0.80;;;;;;;;;;500953;29;1106;-73
2023/07/26 01:29:08;;;;;;;2.05;0.70;;;;;;;;;;505378;28;1328;-73
2023/07/26 01:29:27;;;;;;;2.50;0.80;;;;;;;;;;505097;28;1075;-73
2023/07/26 01:29:50;;;;;;;2.28;0.80;;;;;;;;;;505139;28;1353;-73
2023/07/26 01:30:52;;;;;;;1.92;0.85;;;;;;;;;;504956;28;1071;-73
2023/07/26 01:31:09;;;;;;;2.20;0.90;;;;;;;;;;503228;28;1260;-74
2023/07/26 01:31:45;;;;;;;;;;;;;;;;;;;;;
2023/07/26 01:32:12;;;;;;;1.55;0.80;;;;;;;;;;497665;29;1169;-74
2023/07/26 01:32:32;;;;;;;2.03;0.90;;;;;;;;;;501556;28;1147;-74
2023/07/26 01:33:07;;;;;;;2.08;0.80;;;;;;;;;;501668;29;2103;-74
2023/07/26 01:33:24;;;;;;;1.63;0.90;;;;;;;;;;501009;29;1954;-74
2023/07/26 01:33:54;;;;;;;1.50;0.80;;;;;;;;;;500997;29;1344;-74
2023/07/26 01:34:11;;;;;;;2.25;0.82;;;;;;;;;;501570;29;941;-74
2023/07/26 01:34:31;;;;;;;2.65;0.90;;;;;;;;;;501349;29;1357;-74
2023/07/26 01:34:54;;;;;;;3.13;0.90;;;;;;;;;;503990;28;1322;-75
2023/07/26 01:35:39;;;;;;;2.55;0.90;;;;;;;;;;503195;28;1111;-74
2023/07/26 01:36:05;;;;;;;2.00;0.98;;;;;;;;;;497945;28;1301;-74
2023/07/26 01:36:31;;;;;;;2.22;1.00;;;;;;;;;;503086;28;1352;-74
2023/07/26 01:36:55;;;;;;;1.73;0.82;;;;;;;;;;502802;28;1071;-75
2023/07/26 01:37:34;;;;;;;2.22;0.98;;;;;;;;;;503057;28;1454;-73
2023/07/26 01:37:53;;;;;;;1.23;0.77;;;;;;;;;;501909;28;1492;-74
2023/07/26 01:38:16;;;;;;;1.23;0.70;;;;;;;;;;502685;28;1094;-74
2023/07/26 01:38:44;;;;;;;2.22;0.80;;;;;;;;;;501106;29;934;-73
2023/07/26 01:39:04;;;;;;;2.08;1.00;;;;;;;;;;507709;28;1961;-74
2023/07/26 01:39:22;;;;;;;2.05;0.93;;;;;;;;;;504615;28;1247;-74
2023/07/26 01:39:46;;;;;;;2.30;1.05;;;;;;;;;;504980;28;1199;-74
2023/07/26 01:40:17;;;;;;;1.38;0.82;;;;;;;;;;508177;28;1304;-76
2023/07/26 01:40:42;;;;;;;1.70;0.80;;;;;;;;;;507598;28;1198;-73
2023/07/26 01:41:05;;;;;;;1.65;0.80;;;;;;;;;;506841;28;1209;-73
2023/07/26 01:41:32;;;;;;;1.65;0.88;;;;;;;;;;506812;28;2222;-74
2023/07/26 01:41:49;;;;;;;1.33;0.82;;;;;;;;;;506096;28;1516;-74
2023/07/26 01:43:03;;;;;;;2.22;0.90;;;;;;;;;;498511;29;1311;-74
2023/07/26 01:43:31;;;;;;;2.00;0.80;;;;;;;;;;499051;29;1411;-74
2023/07/26 01:43:49;;;;;;;2.40;1.05;;;;;;;;;;505369;28;1070;-74
2023/07/26 01:44:05;;;;;;;2.80;1.00;;;;;;;;;;505050;28;1324;-74
2023/07/26 01:44:36;;;;;;;;;;;;;;;;;;;;;
2023/07/26 01:45:06;;;;;;;2.78;1.00;;;;;;;;;;505875;28;941;-73
2023/07/26 01:45:22;;;;;;;3.17;1.05;;;;;;;;;;506822;28;1595;-74
2023/07/26 01:46:13;;;;;;;1.90;0.90;;;;;;;;;;506996;28;1189;-74
2023/07/26 01:47:10;;;;;;;1.67;1.00;;;;;;;;;;503845;28;1441;-74
2023/07/26 01:47:54;;;;;;;2.30;0.90;;;;;;;;;;513713;28;1315;-74
2023/07/26 01:48:10;;;;;;;1.70;0.80;;;;;;;;;;507183;28;1242;-73
2023/07/26 01:48:34;;;;;;;1.80;0.70;;;;;;;;;;506567;28;1170;-76
2023/07/26 01:48:56;;;;;;;2.10;0.90;;;;;;;;;;508144;28;1549;-74
2023/07/26 01:49:16;;;;;;;3.30;0.98;;;;;;;;;;512387;28;1261;-74
2023/07/26 01:49:39;;;;;;;1.88;0.80;;;;;;;;;;513088;28;1458;-74
2023/07/26 01:50:07;;;;;;;2.47;1.00;;;;;;;;;;508816;28;1466;-73
2023/07/26 01:50:29;;;;;;;1.20;0.80;;;;;;;;;;508757;28;1510;-74
2023/07/26 01:50:51;;;;;;;1.38;0.85;;;;;;;;;;514323;28;1485;-74
2023/07/26 01:51:12;;;;;;;1.60;0.80;;;;;;;;;;514141;28;1633;-74
2023/07/26 01:51:40;;;;;;;1.45;0.90;;;;;;;;;;513058;28;1592;-73
2023/07/26 01:52:11;;;;;;;1.90;1.00;;;;;;;;;;514828;28;1289;-75
2023/07/26 01:52:34;;;;;;;1.58;0.88;;;;;;;;;;516030;28;1371;-74
2023/07/26 01:53:43;;;;;;;1.63;0.88;;;;;;;;;;513640;28;919;-73
2023/07/26 01:54:02;;;;;;;2.47;1.00;;;;;;;;;;508987;28;1214;-76
2023/07/26 01:54:17;;;;;;;1.80;0.90;;;;;;;;;;508876;28;1429;-76
2023/07/26 01:54:37;;;;;;;1.38;0.90;;;;;;;;;;509897;28;1295;-77
2023/07/26 01:55:41;;;;;;;2.22;1.00;;;;;;;;;;517450;28;1400;-77
2023/07/26 01:56:06;;;;;;;3.53;0.90;;;;;;;;;;510063;28;1282;-77
2023/07/26 01:56:34;;;;;;;3.45;0.93;;;;;;;;;;509062;28;1124;-76
2023/07/26 01:57:10;;;;;;;1.73;0.90;;;;;;;;;;510289;28;997;-74
2023/07/26 01:58:02;;;;;;;2.58;1.00;;;;;;;;;;510814;28;2329;-74
2023/07/26 01:58:34;;;;;;;3.08;1.00;;;;;;;;;;507507;28;1274;-74
2023/07/26 01:58:58;;;;;;;1.60;0.90;;;;;;;;;;507304;28;1201;-75
2023/07/26 01:59:43;;;;;;;1.52;0.90;;;;;;;;;;509008;28;1021;-74
2023/07/26 02:00:02;;;;;;;2.28;1.00;;;;;;;;;;508316;28;1175;-75
2023/07/26 02:00:21;;;;;;;1.55;0.90;;;;;;;;;;505679;28;1194;-74
2023/07/26 02:00:49;;;;;;;1.45;1.00;;;;;;;;;;506443;28;1152;-75
2023/07/26 02:01:08;;;;;;;2.72;0.90;;;;;;;;;;508430;28;1100;-74
2023/07/26 02:01:45;;;;;;;1.55;0.80;;;;;;;;;;507000;28;1522;-74
2023/07/26 02:02:07;;;;;;;2.35;1.00;;;;;;;;;;505606;28;1411;-73
2023/07/26 02:02:51;;;;;;;2.35;1.05;;;;;;;;;;508260;28;1637;-75
2023/07/26 02:03:08;;;;;;;1.92;0.85;;;;;;;;;;498560;29;1072;-75
2023/07/26 02:03:29;;;;;;;2.33;0.95;;;;;;;;;;498595;29;1428;-73
2023/07/26 02:04:01;;;;;;;1.75;0.80;;;;;;;;;;498250;29;1083;-74
2023/07/26 02:04:19;;;;;;;1.50;0.70;;;;;;;;;;510083;28;1125;-74
2023/07/26 02:04:41;;;;;;;1.50;0.70;;;;;;;;;;508856;28;1332;-75
2023/07/26 02:05:03;;;;;;;2.92;0.80;;;;;;;;;;508985;28;1173;-75
2023/07/26 02:05:21;;;;;;;2.25;0.80;;;;;;;;;;508815;28;1078;-74
2023/07/26 02:06:36;;;;;;;;;;;;;;;;;;;;;
2023/07/26 02:06:57;;;;;;;1.67;0.80;;;;;;;;;;511134;28;1205;-74
2023/07/26 02:08:01;;;;;;;1.98;0.90;;;;;;;;;;508653;28;1643;-74
2023/07/26 02:08:30;;;;;;;2.30;0.95;;;;;;;;;;506915;28;1895;-74
2023/07/26 02:08:49;;;;;;;2.00;1.00;;;;;;;;;;507368;28;974;-74
2023/07/26 02:09:14;;;;;;;3.05;1.08;;;;;;;;;;509161;28;1319;-73
2023/07/26 02:09:53;;;;;;;2.72;0.85;;;;;;;;;;505741;28;1348;-75
2023/07/26 02:10:30;;;;;;;3.03;0.90;;;;;;;;;;498411;29;1667;-74
2023/07/26 02:10:49;;;;;;;1.50;0.90;;;;;;;;;;498619;29;1430;-75
2023/07/26 02:11:05;;;;;;;2.03;0.80;;;;;;;;;;498423;28;1262;-75
2023/07/26 02:11:43;;;;;;;1.73;0.80;;;;;;;;;;508207;28;1133;-75
2023/07/26 02:12:02;;;;;;;1.60;0.90;;;;;;;;;;501583;28;1346;-75
2023/07/26 02:12:30;;;;;;;1.80;1.00;;;;;;;;;;504736;28;1191;-73
2023/07/26 02:13:06;;;;;;;2.40;1.00;;;;;;;;;;507924;28;933;-73
2023/07/26 02:14:06;;;;;;;1.48;0.82;;;;;;;;;;503086;28;1301;-75
2023/07/26 02:15:03;;;;;;;1.90;0.90;;;;;;;;;;505011;28;1117;-74
2023/07/26 02:15:57;;;;;;;1.88;0.90;;;;;;;;;;498764;28;1501;-74
2023/07/26 02:16:32;;;;;;;;;;;;;;;;;;;;;
2023/07/26 02:16:52;;;;;;;2.05;0.80;;;;;;;;;;504093;28;1148;-75
2023/07/26 02:17:36;;;;;;;2.00;0.90;;;;;;;;;;504481;28;1146;-74
2023/07/26 02:17:52;;;;;;;1.73;0.90;;;;;;;;;;504584;28;1214;-74
2023/07/26 02:18:09;;;;;;;1.27;0.93;;;;;;;;;;504998;28;1603;-73
2023/07/26 02:18:45;;;;;;;2.38;0.93;;;;;;;;;;504855;28;1106;-74
2023/07/26 02:19:01;;;;;;;1.83;1.00;;;;;;;;;;504396;28;2003;-75
2023/07/26 02:20:32;;;;;;;2.17;0.90;;;;;;;;;;501088;28;1378;-74
2023/07/26 02:20:51;;;;;;;2.15;1.00;;;;;;;;;;499767;29;1494;-74
2023/07/26 02:21:11;;;;;;;2.03;0.95;;;;;;;;;;499575;28;1251;-73
2023/07/26 02:21:50;;;;;;;1.88;0.80;;;;;;;;;;498045;29;1425;-75
2023/07/26 02:22:18;;;;;;;2.65;1.00;;;;;;;;;;494625;29;1004;-74
2023/07/26 02:22:58;;;;;;;1.50;1.10;;;;;;;;;;494310;29;1163;-74
2023/07/26 02:23:17;;;;;;;2.45;0.93;;;;;;;;;;497233;29;1829;-74
2023/07/26 02:24:07;;;;;;;2.60;1.00;;;;;;;;;;500271;29;973;-74
2023/07/26 02:24:50;;;;;;;2.20;1.08;;;;;;;;;;500110;29;1650;-75
2023/07/26 02:25:17;;;;;;;2.33;0.90;;;;;;;;;;490886;29;2034;-74
2023/07/26 02:25:33;;;;;;;2.67;0.95;;;;;;;;;;491198;29;1429;-74
2023/07/26 02:25:52;;;;;;;1.92;0.95;;;;;;;;;;491366;29;1302;-74
2023/07/26 02:26:08;;;;;;;2.72;1.00;;;;;;;;;;497617;29;1288;-74
2023/07/26 02:26:42;;;;;;;2.83;0.98;;;;;;;;;;497298;29;1246;-74
2023/07/26 02:27:06;;;;;;;1.48;0.90;;;;;;;;;;499274;29;975;-73
2023/07/26 02:27:25;;;;;;;1.85;1.02;;;;;;;;;;500396;29;1095;-74
2023/07/26 02:27:59;;;;;;;1.73;1.00;;;;;;;;;;498856;29;1070;-75
2023/07/26 02:28:17;;;;;;;1.67;0.90;;;;;;;;;;498196;29;1615;-74
2023/07/26 02:28:38;;;;;;;1.95;0.98;;;;;;;;;;501144;28;1501;-74
2023/07/26 02:29:00;;;;;;;2.28;0.90;;;;;;;;;;500645;29;1220;-74
2023/07/26 02:29:34;;;;;;;;;;;;;;;;;;;;;
2023/07/26 02:30:29;;;;;;;1.88;0.93;;;;;;;;;;500640;28;1184;-74
2023/07/26 02:31:03;;;;;;;2.03;0.90;;;;;;;;;;499960;28;992;-75
2023/07/26 02:31:22;;;;;;;2.58;1.00;;;;;;;;;;500218;28;1328;-75
2023/07/26 02:31:54;;;;;;;2.25;1.08;;;;;;;;;;500619;29;971;-74
2023/07/26 02:32:18;;;;;;;2.58;1.10;;;;;;;;;;502464;28;1060;-74
2023/07/26 02:32:34;;;;;;;1.80;1.00;;;;;;;;;;501615;28;1365;-75
2023/07/26 02:33:04;;;;;;;2.22;0.90;;;;;;;;;;501417;28;1497;-74
2023/07/26 02:33:33;;;;;;;1.58;0.90;;;;;;;;;;500627;28;1080;-74
2023/07/26 02:33:49;;;;;;;3.10;1.08;;;;;;;;;;500803;28;1241;-74
2023/07/26 02:34:23;;;;;;;2.60;1.10;;;;;;;;;;502482;28;1179;-74
2023/07/26 02:34:42;;;;;;;3.13;1.20;;;;;;;;;;504359;28;981;-74
2023/07/26 02:35:20;;;;;;;3.28;1.20;;;;;;;;;;504345;28;1431;-74
2023/07/26 02:35:45;;;;;;;1.55;0.90;;;;;;;;;;501980;29;1224;-74
2023/07/26 02:36:04;;;;;;;2.03;1.00;;;;;;;;;;503852;28;1259;-74
2023/07/26 02:36:37;;;;;;;2.67;1.02;;;;;;;;;;504550;28;1315;-75
2023/07/26 02:37:14;;;;;;;2.72;1.02;;;;;;;;;;502806;28;1344;-75
2023/07/26 02:38:23;;;;;;;1.67;0.90;;;;;;;;;;499596;29;1307;-74
2023/07/26 02:38:57;;;;;;;1.63;0.90;;;;;;;;;;499705;29;1365;-75
2023/07/26 02:39:16;;;;;;;2.08;1.15;;;;;;;;;;499671;29;1749;-75
2023/07/26 02:39:58;;;;;;;1.83;1.00;;;;;;;;;;499998;29;1543;-75
2023/07/26 02:40:19;;;;;;;2.47;1.23;;;;;;;;;;496593;29;1227;-75
2023/07/26 02:41:02;;;;;;;2.90;1.13;;;;;;;;;;494093;29;1344;-74
2023/07/26 02:41:41;;;;;;;2.45;0.90;;;;;;;;;;491977;29;1445;-75
2023/07/26 02:43:40;;;;;;;2.03;0.90;;;;;;;;;;494614;29;1306;-74
2023/07/26 02:44:12;;;;;;;1.80;0.98;;;;;;;;;;496356;29;1162;-74
2023/07/26 02:44:37;;;;;;;2.20;0.90;;;;;;;;;;500251;28;958;-74
2023/07/26 02:44:54;;;;;;;2.53;1.00;;;;;;;;;;498063;29;1002;-73
2023/07/26 02:45:10;;;;;;;3.17;1.10;;;;;;;;;;498185;29;1375;-75
2023/07/26 02:46:13;;;;;;;2.97;1.05;;;;;;;;;;498899;29;1375;-75
2023/07/26 02:46:47;;;;;;;1.60;0.90;;;;;;;;;;498367;29;1492;-74
2023/07/26 02:47:35;;;;;;;3.50;1.33;;;;;;;;;;497322;29;1875;-75
2023/07/26 02:48:18;;;;;;;2.80;1.00;;;;;;;;;;496795;29;1026;-73
2023/07/26 02:49:02;;;;;;;1.75;1.00;;;;;;;;;;497773;29;1144;-75
2023/07/26 02:49:43;;;;;;;2.03;1.00;;;;;;;;;;497259;29;1315;-75
2023/07/26 02:50:08;;;;;;;2.83;1.13;;;;;;;;;;495691;29;1760;-74
2023/07/26 02:50:43;;;;;;;2.03;1.00;;;;;;;;;;496596;29;976;-74
2023/07/26 02:51:22;;;;;;;3.70;1.10;;;;;;;;;;497721;29;1500;-75
2023/07/26 02:51:53;;;;;;;1.05;0.95;;;;;;;;;;495716;29;1088;-75
2023/07/26 02:52:14;;;;;;;2.20;1.20;;;;;;;;;;500156;29;1175;-75
2023/07/26 02:52:47;;;;;;;4.20;1.30;;;;;;;;;;503754;28;1260;-76
2023/07/26 02:53:12;;;;;;;2.83;1.10;;;;;;;;;;507547;28;1043;-74
2023/07/26 02:53:54;;;;;;;2.08;1.00;;;;;;;;;;507352;28;1146;-75
2023/07/26 02:54:39;;;;;;;2.00;1.10;;;;;;;;;;505932;28;1246;-74
2023/07/26 02:55:33;;;;;;;4.20;1.20;;;;;;;;;;499090;29;1278;-75
2023/07/26 02:56:09;;;;;;;1.80;1.08;;;;;;;;;;499944;29;1156;-75
2023/07/26 02:57:27;;;;;;;2.92;1.10;;;;;;;;;;502190;28;1215;-75
2023/07/26 02:58:08;;;;;;;4.07;1.20;;;;;;;;;;505139;28;1379;-74
2023/07/26 02:58:47;;;;;;;1.90;1.08;;;;;;;;;;505663;28;968;-74
2023/07/26 02:59:06;;;;;;;2.57;1.20;;;;;;;;;;505797;28;1926;-74
2023/07/26 02:59:24;;;;;;;3.55;1.20;;;;;;;;;;507280;28;1303;-75
2023/07/26 02:59:48;;;;;;;3.10;1.30;;;;;;;;;;509201;28;1601;-75
2023/07/26 03:00:10;;;;;;;2.30;1.00;;;;;;;;;;505803;28;1500;-75
2023/07/26 03:00:41;;;;;;;2.38;1.00;;;;;;;;;;507879;28;1061;-75
2023/07/26 03:01:17;;;;;;;1.90;1.00;;;;;;;;;;507586;28;976;-74
2023/07/26 03:01:37;;;;;;;2.20;1.10;;;;;;;;;;509092;28;991;-76
2023/07/26 03:02:17;;;;;;;2.60;1.10;;;;;;;;;;509579;28;1261;-74
2023/07/26 03:02:53;;;;;;;1.95;1.00;;;;;;;;;;511585;28;941;-75
2023/07/26 03:03:32;;;;;;;2.67;1.10;;;;;;;;;;511518;28;1165;-75
2023/07/26 03:03:47;;;;;;;2.55;1.08;;;;;;;;;;509602;28;1288;-73
2023/07/26 03:04:11;;;;;;;1.70;0.90;;;;;;;;;;507709;28;1571;-73
2023/07/26 03:04:33;;;;;;;2.53;1.00;;;;;;;;;;509321;28;1372;-74
2023/07/26 03:05:01;;;;;;;1.92;1.05;;;;;;;;;;507749;28;1422;-74
2023/07/26 03:05:20;;;;;;;3.08;1.20;;;;;;;;;;508419;28;1502;-75
2023/07/26 03:06:05;;;;;;;3.47;1.20;;;;;;;;;;506523;28;1502;-75
2023/07/26 03:06:29;;;;;;;2.45;1.10;;;;;;;;;;508584;28;1100;-74
2023/07/26 03:07:09;;;;;;;3.70;1.05;;;;;;;;;;507211;28;1129;-74
2023/07/26 03:07:30;;;;;;;2.75;1.25;;;;;;;;;;507401;28;1022;-74
2023/07/26 03:07:49;;;;;;;3.30;1.02;;;;;;;;;;507068;28;1377;-75
2023/07/26 03:08:11;;;;;;;3.40;1.10;;;;;;;;;;504903;28;1470;-75
2023/07/26 03:08:39;;;;;;;2.28;1.10;;;;;;;;;;504910;28;1143;-74
2023/07/26 03:10:37;;;;;;;3.53;1.15;;;;;;;;;;499664;28;1465;-74
2023/07/26 03:10:52;;;;;;;2.58;1.30;;;;;;;;;;509243;28;1122;-73
2023/07/26 03:11:11;;;;;;;2.15;1.20;;;;;;;;;;507137;28;1635;-74
2023/07/26 03:11:39;;;;;;;2.47;1.10;;;;;;;;;;507813;28;1074;-74
2023/07/26 03:12:01;;;;;;;2.17;1.00;;;;;;;;;;508037;28;1318;-74
2023/07/26 03:12:25;;;;;;;2.95;1.17;;;;;;;;;;508507;28;980;-74
2023/07/26 03:12:44;;;;;;;2.83;1.20;;;;;;;;;;509594;28;1327;-75
2023/07/26 03:13:06;;;;;;;2.90;1.10;;;;;;;;;;509307;28;1453;-74
2023/07/26 03:13:47;;;;;;;3.47;1.20;;;;;;;;;;508806;28;1341;-72
2023/07/26 03:14:06;;;;;;;3.22;1.20;;;;;;;;;;502512;28;1549;-75
2023/07/26 03:14:30;;;;;;;2.30;1.20;;;;;;;;;;503305;28;1127;-74
2023/07/26 03:15:24;;;;;;;1.85;1.10;;;;;;;;;;501130;29;1406;-75
2023/07/26 03:15:49;;;;;;;2.60;1.10;;;;;;;;;;498085;29;1489;-74
2023/07/26 03:16:08;;;;;;;2.97;1.17;;;;;;;;;;496438;29;1500;-73
2023/07/26 03:16:26;;;;;;;2.97;1.20;;;;;;;;;;496282;29;1489;-74
2023/07/26 03:16:54;;;;;;;3.33;1.20;;;;;;;;;;497285;29;1167;-75